Time;durP1;ratioP1;P1;durP2;ratioP2;P2;SDS_P1;SDS_P2;PMS_P1;PMS_P2;Temp;Humidity;BMP_temperature;BMP_pressure;BME280_temperature;BME280_humidity;BME280_pressure;Samples;Min_cycle;Max_cycle;Signal;HPM_P1;HPM_P2
2021/12/10 00:00:51;;;;;;;10.68;7.38;;;5.70;99.90;;;;;;5012907;28;20025;-77
2021/12/10 00:03:23;;;;;;;10.85;6.78;;;5.60;99.90;;;;;;5013692;28;20489;-81
2021/12/10 00:05:54;;;;;;;12.13;7.75;;;5.60;99.90;;;;;;5015164;28;20034;-83
2021/12/10 00:08:22;;;;;;;11.77;7.75;;;5.60;99.90;;;;;;5029907;28;20072;-78
2021/12/10 00:10:52;;;;;;;10.13;7.00;;;5.50;99.90;;;;;;5029826;28;20073;-83
2021/12/10 00:13:18;;;;;;;10.13;7.70;;;5.50;99.90;;;;;;5030275;28;20033;-77
2021/12/10 00:15:44;;;;;;;9.90;7.65;;;5.50;99.90;;;;;;5029652;28;20018;-80
2021/12/10 00:18:13;;;;;;;12.88;8.25;;;5.50;99.90;;;;;;5029693;28;20079;-79
2021/12/10 00:20:41;;;;;;;13.60;7.72;;;5.50;99.90;;;;;;5029877;28;20430;-81
2021/12/10 00:23:12;;;;;;;9.50;7.18;;;5.50;99.90;;;;;;5029733;28;20021;-81
2021/12/10 00:25:40;;;;;;;16.67;8.10;;;5.50;99.90;;;;;;5029692;28;20021;-78
2021/12/10 00:28:14;;;;;;;11.38;7.28;;;5.40;99.90;;;;;;5030216;28;20132;-79
2021/12/10 00:31:15;;;;;;;10.13;6.78;;;5.30;99.90;;;;;;5029472;28;20507;-78
2021/12/10 00:33:48;;;;;;;10.05;6.97;;;5.30;99.90;;;;;;5029680;28;20095;-81
2021/12/10 00:36:14;;;;;;;9.23;6.60;;;5.20;99.90;;;;;;5028048;28;20017;-78
2021/12/10 00:38:40;;;;;;;9.85;6.80;;;5.20;99.90;;;;;;5013496;28;20026;-84
2021/12/10 00:41:07;;;;;;;8.00;6.53;;;5.20;99.90;;;;;;5013489;28;20020;-79
2021/12/10 00:43:34;;;;;;;8.35;7.40;;;5.10;99.90;;;;;;5023820;28;20040;-85
2021/12/10 00:46:00;;;;;;;14.02;8.95;;;5.10;99.90;;;;;;5029998;28;20022;-81
2021/12/10 00:48:26;;;;;;;10.43;6.65;;;5.00;99.90;;;;;;5029150;28;20029;-79
2021/12/10 00:50:55;;;;;;;15.45;7.75;;;5.00;99.90;;;;;;5028971;28;20444;-80
2021/12/10 00:53:21;;;;;;;10.82;8.23;;;5.10;99.90;;;;;;5029582;28;20036;-77
2021/12/10 00:55:47;;;;;;;12.77;7.82;;;5.10;99.90;;;;;;5021004;28;20091;-83
2021/12/10 00:58:15;;;;;;;10.38;7.50;;;5.10;99.90;;;;;;5011675;28;20057;-85
2021/12/10 01:00:57;;;;;;;10.48;7.55;;;5.20;99.90;;;;;;5012278;28;20030;-83
2021/12/10 01:03:32;;;;;;;10.13;7.30;;;5.20;99.90;;;;;;5011087;28;20026;-79
2021/12/10 01:06:02;;;;;;;10.13;6.50;;;5.30;99.90;;;;;;5013144;28;20021;-81
2021/12/10 01:08:29;;;;;;;8.30;7.18;;;5.40;99.90;;;;;;5030434;28;20025;-83
2021/12/10 01:11:04;;;;;;;11.10;7.43;;;5.40;99.90;;;;;;5012598;28;20038;-81
2021/12/10 01:13:35;;;;;;;9.82;7.72;;;5.40;99.90;;;;;;5011975;28;20033;-85
2021/12/10 01:23:46;;;;;;;10.18;6.93;;;5.40;99.90;;;;;;5013490;28;20013;-83
2021/12/10 01:25:04;;;;;;;9.23;7.63;;;5.50;99.90;;;;;;5029293;28;20040;-84
2021/12/10 01:27:33;;;;;;;8.25;7.32;;;5.50;99.90;;;;;;5012673;28;20033;-85
2021/12/10 01:30:24;;;;;;;10.02;7.13;;;5.50;99.90;;;;;;5011781;28;20021;-78
2021/12/10 01:33:04;;;;;;;10.20;7.20;;;5.60;99.90;;;;;;5010882;28;20041;-78
2021/12/10 01:35:33;;;;;;;10.98;7.60;;;5.60;99.90;;;;;;5012725;28;20944;-78
2021/12/10 01:38:00;;;;;;;9.90;7.00;;;5.60;99.90;;;;;;5011842;28;20546;-77
2021/12/10 01:40:28;;;;;;;9.80;7.07;;;5.50;99.90;;;;;;5012207;28;20060;-81
2021/12/10 01:43:07;;;;;;;9.30;6.65;;;5.50;99.90;;;;;;5011815;28;20052;-84
2021/12/10 01:45:47;;;;;;;8.95;6.50;;;5.50;99.90;;;;;;5012749;28;20105;-79
2021/12/10 01:48:17;;;;;;;11.73;7.35;;;5.40;99.90;;;;;;5014632;28;20453;-78
2021/12/10 01:50:43;;;;;;;11.15;8.13;;;5.30;99.90;;;;;;5016089;28;20040;-78
2021/12/10 01:53:12;;;;;;;10.00;7.15;;;5.30;99.90;;;;;;5013306;28;20641;-81
2021/12/10 01:55:44;;;;;;;10.23;7.35;;;5.20;99.90;;;;;;5013799;28;20033;-85
2021/12/10 01:58:13;;;;;;;11.27;7.68;;;5.20;99.90;;;;;;5015367;28;20018;-81
2021/12/10 02:00:52;;;;;;;8.93;7.30;;;5.10;99.90;;;;;;5001097;28;20064;-78
2021/12/10 02:03:18;;;;;;;10.90;7.60;;;5.00;99.90;;;;;;5015971;28;20500;-77
2021/12/10 02:05:43;;;;;;;12.75;8.10;;;5.00;99.90;;;;;;5016388;28;20108;-77
2021/12/10 02:08:09;;;;;;;9.88;7.75;;;4.90;99.90;;;;;;5013435;28;20112;-83
2021/12/10 02:10:35;;;;;;;7.50;6.65;;;4.90;99.90;;;;;;5015601;28;20374;-78
2021/12/10 02:13:02;;;;;;;9.98;6.57;;;4.80;99.90;;;;;;5015186;28;20029;-81
2021/12/10 02:15:29;;;;;;;7.82;6.65;;;4.80;99.90;;;;;;5014259;28;20385;-79
2021/12/10 02:17:57;;;;;;;7.40;5.97;;;4.70;99.90;;;;;;5015630;28;20029;-81
2021/12/10 02:20:52;;;;;;;9.43;7.05;;;4.70;99.90;;;;;;5014749;28;20470;-85
2021/12/10 02:23:18;;;;;;;9.48;6.60;;;4.60;99.90;;;;;;5014855;28;20037;-82
2021/12/10 02:25:43;;;;;;;8.98;6.88;;;4.60;99.90;;;;;;5015477;28;20056;-83
2021/12/10 02:28:12;;;;;;;8.60;6.90;;;4.60;99.90;;;;;;5032706;28;20053;-80
2021/12/10 02:30:39;;;;;;;9.23;6.68;;;4.60;99.90;;;;;;5014230;28;20545;-77
2021/12/10 02:33:05;;;;;;;10.45;6.85;;;4.50;99.90;;;;;;5015949;28;20044;-78
2021/12/10 02:35:31;;;;;;;8.20;6.88;;;4.50;99.90;;;;;;5014967;28;20068;-78
2021/12/10 02:37:58;;;;;;;8.77;5.97;;;4.40;99.90;;;;;;5013902;28;20029;-83
2021/12/10 02:40:25;;;;;;;8.13;5.90;;;4.40;99.90;;;;;;5014521;28;20462;-78
2021/12/10 02:42:52;;;;;;;6.55;5.53;;;4.40;99.90;;;;;;5015438;28;20045;-83
2021/12/10 02:45:19;;;;;;;6.53;5.53;;;4.30;99.90;;;;;;5015228;28;20104;-78
2021/12/10 02:47:46;;;;;;;8.02;5.47;;;4.30;99.90;;;;;;5014925;28;20048;-81
2021/12/10 02:50:15;;;;;;;9.07;5.50;;;4.20;99.90;;;;;;5013420;28;20021;-81
2021/12/10 02:52:41;;;;;;;6.63;5.50;;;4.20;99.90;;;;;;5014797;28;20065;-84
2021/12/10 02:55:10;;;;;;;9.13;5.20;;;4.20;99.90;;;;;;5013948;28;20026;-77
2021/12/10 02:57:38;;;;;;;8.48;5.68;;;4.10;99.90;;;;;;5013996;28;20474;-77
2021/12/10 03:00:10;;;;;;;8.90;6.05;;;4.10;99.90;;;;;;5014158;28;20104;-84
2021/12/10 03:02:35;;;;;;;;;;;4.00;99.90;;;;;;5015117;28;20535;-78
2021/12/10 03:05:01;;;;;;;5.18;4.28;;;4.00;99.90;;;;;;5013337;28;19909;-80
2021/12/10 03:07:27;;;;;;;9.15;6.07;;;4.00;99.90;;;;;;5013572;28;20504;-78
2021/12/10 03:09:55;;;;;;;7.30;5.80;;;4.00;99.90;;;;;;5032518;28;20033;-76
2021/12/10 03:12:22;;;;;;;5.78;4.97;;;4.00;99.90;;;;;;5030352;28;20053;-77
2021/12/10 03:14:52;;;;;;;8.05;5.00;;;4.00;99.90;;;;;;5013284;28;20026;-78
2021/12/10 03:17:22;;;;;;;8.10;5.57;;;3.90;99.90;;;;;;5013029;28;20021;-77
2021/12/10 03:19:48;;;;;;;12.48;5.93;;;3.90;99.90;;;;;;5032040;28;20029;-78
2021/12/10 03:22:14;;;;;;;8.68;6.00;;;3.90;99.90;;;;;;5012323;28;20023;-77
2021/12/10 03:24:40;;;;;;;10.70;6.47;;;3.90;99.90;;;;;;5028587;28;20018;-78
2021/12/10 03:27:10;;;;;;;9.13;5.85;;;3.80;99.90;;;;;;5020122;28;20028;-80
2021/12/10 03:29:40;;;;;;;6.80;4.97;;;3.80;99.90;;;;;;5030587;28;20028;-77
2021/12/10 03:32:11;;;;;;;5.90;5.20;;;3.80;99.90;;;;;;5016799;28;20043;-78
2021/12/10 03:34:37;;;;;;;6.47;5.65;;;3.80;99.90;;;;;;5013424;28;20461;-76
2021/12/10 03:37:05;;;;;;;6.57;5.78;;;3.80;99.90;;;;;;5013334;28;20510;-77
2021/12/10 03:39:31;;;;;;;7.03;5.35;;;3.80;99.90;;;;;;5012559;28;20017;-77
2021/12/10 03:41:58;;;;;;;7.57;5.50;;;3.80;99.90;;;;;;5013332;28;20374;-77
2021/12/10 03:44:24;;;;;;;6.32;5.10;;;3.70;99.90;;;;;;5030724;28;20026;-77
2021/12/10 03:46:51;;;;;;;9.55;5.65;;;3.70;99.90;;;;;;5013830;28;20109;-76
2021/12/10 03:49:17;;;;;;;9.60;5.75;;;3.70;99.90;;;;;;5013797;28;20063;-76
2021/12/10 03:51:43;;;;;;;6.40;5.15;;;3.60;99.90;;;;;;5031170;28;20382;-76
2021/12/10 03:54:11;;;;;;;6.65;5.57;;;3.70;99.90;;;;;;5013407;28;20104;-79
2021/12/10 03:56:38;;;;;;;6.22;5.40;;;3.70;99.90;;;;;;5013585;28;20026;-77
2021/12/10 03:59:10;;;;;;;7.95;6.40;;;3.70;99.90;;;;;;5014204;28;20025;-77
2021/12/10 04:01:39;;;;;;;5.75;5.07;;;3.70;99.90;;;;;;5012982;28;20116;-77
2021/12/10 04:04:10;;;;;;;7.88;5.40;;;3.70;99.90;;;;;;5013850;28;20031;-81
2021/12/10 04:06:36;;;;;;;6.60;4.88;;;3.70;99.90;;;;;;5030597;28;20039;-79
2021/12/10 04:09:03;;;;;;;7.40;5.38;;;3.70;99.90;;;;;;5013771;28;20026;-77
2021/12/10 04:11:29;;;;;;;6.28;5.05;;;3.70;99.90;;;;;;5012161;28;20058;-77
2021/12/10 04:13:56;;;;;;;6.15;4.95;;;3.70;99.90;;;;;;5013359;28;20037;-85
2021/12/10 04:16:24;;;;;;;7.30;5.05;;;3.70;99.90;;;;;;5013863;28;20112;-77
2021/12/10 04:18:52;;;;;;;6.00;4.68;;;3.60;99.90;;;;;;5013878;28;20028;-76
2021/12/10 04:21:18;;;;;;;5.35;4.43;;;3.60;99.90;;;;;;5012515;28;20034;-80
2021/12/10 04:23:45;;;;;;;7.82;4.90;;;3.60;99.90;;;;;;5031301;28;20405;-85
2021/12/10 04:26:14;;;;;;;6.13;4.57;;;3.60;99.90;;;;;;5031273;28;20462;-82
2021/12/10 04:28:40;;;;;;;6.30;4.53;;;3.50;99.90;;;;;;5012591;28;20026;-78
2021/12/10 04:31:05;;;;;;;7.47;4.47;;;3.50;99.90;;;;;;5013175;28;20492;-77
2021/12/10 04:33:31;;;;;;;6.82;4.32;;;3.50;99.90;;;;;;5012935;28;20033;-76
2021/12/10 04:36:00;;;;;;;6.32;3.97;;;3.60;99.90;;;;;;5012645;28;20032;-77
2021/12/10 04:38:27;;;;;;;5.85;4.20;;;3.50;99.90;;;;;;5013132;28;20021;-76
2021/12/10 04:40:59;;;;;;;7.53;4.30;;;3.50;99.90;;;;;;5013233;28;20531;-81
2021/12/10 04:43:25;;;;;;;6.40;3.83;;;3.50;99.90;;;;;;5012752;28;20049;-76
2021/12/10 04:45:56;;;;;;;7.90;4.43;;;3.60;99.90;;;;;;5013795;28;20026;-77
2021/12/10 04:48:23;;;;;;;6.05;4.25;;;3.50;99.90;;;;;;5013382;28;20029;-77
2021/12/10 04:50:50;;;;;;;7.03;4.10;;;3.50;99.90;;;;;;5012520;28;20044;-78
2021/12/10 04:53:16;;;;;;;5.50;3.60;;;3.60;99.90;;;;;;5012961;28;20021;-81
2021/12/10 04:55:42;;;;;;;7.43;4.50;;;3.50;99.90;;;;;;5030073;28;20021;-79
2021/12/10 04:58:09;;;;;;;6.53;4.03;;;3.60;99.90;;;;;;5013312;28;20045;-77
2021/12/10 05:00:43;;;;;;;10.15;4.85;;;3.50;99.90;;;;;;5030551;28;20017;-79
2021/12/10 05:03:10;;;;;;;5.45;4.13;;;3.50;99.90;;;;;;5012685;28;20153;-77
2021/12/10 05:05:37;;;;;;;7.72;4.47;;;3.50;99.90;;;;;;5012547;28;20057;-82
2021/12/10 05:08:04;;;;;;;5.65;4.28;;;3.50;99.90;;;;;;5012891;28;20026;-78
2021/12/10 05:10:30;;;;;;;6.15;4.40;;;3.50;99.90;;;;;;5011874;28;20049;-77
2021/12/10 05:12:56;;;;;;;6.00;4.47;;;3.50;99.90;;;;;;5012843;28;20099;-77
2021/12/10 05:15:24;;;;;;;8.77;4.93;;;3.50;99.90;;;;;;5012595;28;20048;-78
2021/12/10 05:17:51;;;;;;;7.40;5.03;;;3.50;99.90;;;;;;5030799;28;20017;-79
2021/12/10 05:20:21;;;;;;;7.22;4.97;;;3.50;99.90;;;;;;5030127;28;20474;-80
2021/12/10 05:22:48;;;;;;;8.07;5.57;;;3.40;99.90;;;;;;5014020;28;20109;-76
2021/12/10 05:25:16;;;;;;;7.45;5.45;;;3.40;99.90;;;;;;5015702;28;20045;-76
2021/12/10 05:27:42;;;;;;;7.45;5.28;;;3.40;99.90;;;;;;5016700;28;20060;-76
2021/12/10 05:30:13;;;;;;;9.15;5.65;;;3.40;99.90;;;;;;5016566;28;20396;-76
2021/12/10 05:32:39;;;;;;;8.77;5.25;;;3.40;99.90;;;;;;5015438;28;20099;-77
2021/12/10 05:35:05;;;;;;;9.23;5.50;;;3.40;99.90;;;;;;5016576;28;20025;-81
2021/12/10 05:37:31;;;;;;;7.85;4.72;;;3.40;99.90;;;;;;5015903;28;20033;-77
2021/12/10 05:39:57;;;;;;;8.18;4.90;;;3.40;99.90;;;;;;5015728;28;20075;-79
2021/12/10 05:42:22;;;;;;;14.75;5.38;;;3.40;99.90;;;;;;5016296;28;20075;-76
2021/12/10 05:44:48;;;;;;;8.60;5.30;;;3.40;99.90;;;;;;5010572;28;20053;-77
2021/12/10 05:47:14;;;;;;;9.32;4.70;;;3.40;99.90;;;;;;5032628;28;20389;-76
2021/12/10 05:49:40;;;;;;;7.32;4.60;;;3.40;99.90;;;;;;5033410;28;20159;-78
2021/12/10 05:52:06;;;;;;;7.05;4.30;;;3.30;99.90;;;;;;5015913;28;20972;-76
2021/12/10 05:54:33;;;;;;;7.60;4.35;;;3.40;99.90;;;;;;5033543;28;20032;-77
2021/12/10 05:56:59;;;;;;;9.93;5.65;;;3.30;99.90;;;;;;5016225;28;20026;-78
2021/12/10 05:59:25;;;;;;;10.77;4.97;;;3.40;99.90;;;;;;5031421;28;20022;-77
2021/12/10 06:01:50;;;;;;;9.48;5.05;;;3.40;99.90;;;;;;5016129;28;20025;-77
2021/12/10 06:04:22;;;;;;;7.95;5.15;;;3.40;99.90;;;;;;5033221;28;20048;-77
2021/12/10 06:06:48;;;;;;;5.88;4.13;;;3.50;99.90;;;;;;5015578;28;20031;-77
2021/12/10 06:09:13;;;;;;;8.40;4.75;;;3.50;99.90;;;;;;5015781;28;20025;-76
2021/12/10 06:11:39;;;;;;;11.68;4.68;;;3.50;99.90;;;;;;5015520;28;20036;-78
2021/12/10 06:14:07;;;;;;;8.55;3.85;;;3.50;99.90;;;;;;5015831;28;20028;-78
2021/12/10 06:16:34;;;;;;;7.82;4.32;;;3.60;99.90;;;;;;5015422;28;20026;-77
2021/12/10 06:19:00;;;;;;;7.95;4.20;;;3.60;99.90;;;;;;5015604;28;20018;-80
2021/12/10 06:21:27;;;;;;;5.13;3.42;;;3.60;99.90;;;;;;5014928;28;20018;-83
2021/12/10 06:23:53;;;;;;;5.63;3.38;;;3.60;99.90;;;;;;5015702;28;20013;-79
2021/12/10 06:26:19;;;;;;;5.88;3.63;;;3.60;99.90;;;;;;5014380;28;20037;-77
2021/12/10 06:28:45;;;;;;;8.88;3.95;;;3.60;99.90;;;;;;5014727;28;20033;-77
2021/12/10 06:31:14;;;;;;;8.00;3.45;;;3.60;99.90;;;;;;5014993;28;20124;-78
2021/12/10 06:33:40;;;;;;;8.38;4.00;;;3.60;99.90;;;;;;5014618;28;20026;-80
2021/12/10 06:36:08;;;;;;;7.13;4.32;;;3.70;99.90;;;;;;5014213;28;20029;-76
2021/12/10 06:38:35;;;;;;;6.63;4.05;;;3.70;99.90;;;;;;5022847;28;20026;-76
2021/12/10 06:41:01;;;;;;;10.57;4.20;;;3.70;99.90;;;;;;5031183;28;20018;-76
2021/12/10 06:43:28;;;;;;;7.00;4.50;;;3.70;99.90;;;;;;5017397;28;20036;-75
2021/12/10 06:45:54;;;;;;;9.15;5.10;;;3.70;99.90;;;;;;5027602;28;20083;-78
2021/12/10 06:48:23;;;;;;;9.98;4.85;;;3.70;99.90;;;;;;5029933;28;20021;-76
2021/12/10 06:50:58;;;;;;;8.07;3.75;;;3.70;99.90;;;;;;5031266;28;20025;-83
2021/12/10 06:53:26;;;;;;;6.57;4.13;;;3.70;99.90;;;;;;5031690;28;20091;-79
2021/12/10 06:55:52;;;;;;;6.68;3.53;;;3.80;99.90;;;;;;5031393;28;20087;-80
2021/12/10 06:58:18;;;;;;;6.28;3.50;;;3.80;99.90;;;;;;5031363;28;20021;-77
2021/12/10 07:00:51;;;;;;;4.80;3.30;;;3.80;99.90;;;;;;5009516;28;20529;-82
2021/12/10 07:03:21;;;;;;;5.20;3.45;;;3.80;99.90;;;;;;5032051;28;20087;-76
2021/12/10 07:05:47;;;;;;;7.78;3.40;;;3.80;99.90;;;;;;5032444;28;20041;-77
2021/12/10 07:08:13;;;;;;;6.93;3.90;;;3.80;99.90;;;;;;5014679;28;20029;-82
2021/12/10 07:10:39;;;;;;;5.00;3.13;;;3.90;99.90;;;;;;5009486;28;20053;-80
2021/12/10 07:13:06;;;;;;;4.45;2.85;;;3.90;99.90;;;;;;5008112;28;20041;-79
2021/12/10 07:15:36;;;;;;;6.82;3.55;;;3.90;99.90;;;;;;4994610;28;20076;-85
2021/12/10 07:18:02;;;;;;;7.88;3.53;;;4.00;99.90;;;;;;5005802;28;20044;-83
2021/12/10 07:20:28;;;;;;;5.78;3.58;;;4.00;99.90;;;;;;5017609;28;20060;-83
2021/12/10 07:22:53;;;;;;;11.63;4.20;;;4.10;99.90;;;;;;5012672;28;20164;-82
2021/12/10 07:25:20;;;;;;;6.22;3.70;;;4.10;99.90;;;;;;5010793;28;20024;-82
2021/12/10 07:27:47;;;;;;;7.38;3.33;;;4.10;99.90;;;;;;5013531;28;20028;-75
2021/12/10 07:30:14;;;;;;;7.30;3.70;;;4.10;99.90;;;;;;5012830;28;20031;-76
2021/12/10 07:32:40;;;;;;;5.05;2.58;;;4.10;99.90;;;;;;5028693;28;20037;-77
2021/12/10 07:35:08;;;;;;;5.57;2.95;;;4.10;99.90;;;;;;5032083;28;20029;-78
2021/12/10 07:37:34;;;;;;;8.40;3.40;;;4.10;99.90;;;;;;5007809;28;20025;-77
2021/12/10 07:40:00;;;;;;;9.73;3.92;;;4.20;99.90;;;;;;5004632;28;20485;-78
2021/12/10 07:42:26;;;;;;;6.22;3.08;;;4.20;99.90;;;;;;5027496;28;20152;-76
2021/12/10 07:44:54;;;;;;;10.27;3.20;;;4.20;99.90;;;;;;5011562;28;20500;-77
2021/12/10 07:47:20;;;;;;;6.55;3.28;;;4.30;99.90;;;;;;5000863;28;20025;-77
2021/12/10 07:49:47;;;;;;;6.93;3.38;;;4.30;99.90;;;;;;5010680;28;20022;-84
2021/12/10 07:52:23;;;;;;;6.63;2.85;;;4.30;99.90;;;;;;5013387;28;20041;-80
2021/12/10 07:54:49;;;;;;;5.30;2.97;;;4.40;99.90;;;;;;5013856;28;20026;-81
2021/12/10 07:57:21;;;;;;;3.85;2.67;;;4.40;99.90;;;;;;5015319;28;20025;-81
2021/12/10 07:59:49;;;;;;;6.63;3.05;;;4.40;99.90;;;;;;5011539;28;20018;-80
2021/12/10 08:02:16;;;;;;;7.70;3.70;;;4.50;99.90;;;;;;5011268;28;20104;-82
2021/12/10 08:04:42;;;;;;;6.38;3.72;;;4.50;99.90;;;;;;4999483;28;20018;-82
2021/12/10 08:07:08;;;;;;;6.07;3.58;;;4.50;99.90;;;;;;4993410;28;20033;-82
2021/12/10 08:09:34;;;;;;;11.13;3.60;;;4.50;99.90;;;;;;4993564;28;20053;-82
2021/12/10 08:12:00;;;;;;;6.80;3.22;;;4.50;99.90;;;;;;4993981;28;20038;-82
2021/12/10 08:14:27;;;;;;;7.82;3.63;;;4.60;99.90;;;;;;4993018;28;20233;-82
2021/12/10 08:16:53;;;;;;;8.57;4.03;;;4.60;99.90;;;;;;4977751;28;20038;-82
2021/12/10 08:19:19;;;;;;;7.65;3.50;;;4.60;99.90;;;;;;4994421;28;20033;-82
2021/12/10 08:21:44;;;;;;;5.38;3.47;;;4.60;99.90;;;;;;4993364;28;20033;-83
2021/12/10 08:24:10;;;;;;;5.05;3.03;;;4.60;99.90;;;;;;4993800;28;20021;-81
2021/12/10 08:26:37;;;;;;;8.20;4.43;;;4.70;99.90;;;;;;4992526;28;20034;-82
2021/12/10 08:29:05;;;;;;;5.55;3.40;;;4.70;99.90;;;;;;4993722;28;20014;-82
2021/12/10 08:31:31;;;;;;;5.55;3.05;;;4.70;99.90;;;;;;4993086;28;20513;-81
2021/12/10 08:33:59;;;;;;;5.25;3.10;;;4.80;99.90;;;;;;4993724;28;20101;-83
2021/12/10 08:36:28;;;;;;;7.63;3.05;;;4.80;99.90;;;;;;4977234;28;20057;-80
2021/12/10 08:38:54;;;;;;;7.50;3.67;;;4.80;99.90;;;;;;5011490;28;20028;-82
2021/12/10 08:41:31;;;;;;;8.55;3.45;;;4.80;99.90;;;;;;4977003;28;20014;-81
2021/12/10 08:44:10;;;;;;;6.53;3.65;;;4.80;99.90;;;;;;4993547;28;20076;-80
2021/12/10 08:46:37;;;;;;;7.63;4.40;;;4.80;99.90;;;;;;4978110;28;20050;-82
2021/12/10 08:49:23;;;;;;;5.78;3.28;;;4.90;99.90;;;;;;4977179;28;20115;-83
2021/12/10 08:52:15;;;;;;;7.50;3.90;;;4.90;99.90;;;;;;4997208;28;20057;-82
2021/12/10 08:54:49;;;;;;;2.85;2.58;;;5.00;99.90;;;;;;4992570;28;20045;-83
2021/12/10 08:57:15;;;;;;;6.15;3.28;;;5.00;99.90;;;;;;4977760;28;20406;-83
2021/12/10 08:59:41;;;;;;;8.35;3.15;;;5.00;99.90;;;;;;4997486;28;20022;-82
2021/12/10 09:02:12;;;;;;;8.52;3.50;;;5.00;99.90;;;;;;4997062;28;20021;-81
2021/12/10 09:04:38;;;;;;;10.00;3.13;;;5.10;99.90;;;;;;5014736;28;20549;-80
2021/12/10 09:07:11;;;;;;;5.40;3.25;;;5.10;99.90;;;;;;4997539;28;20030;-82
2021/12/10 09:09:40;;;;;;;9.10;4.70;;;5.10;99.90;;;;;;4993111;28;20556;-80
2021/12/10 09:12:11;;;;;;;6.75;3.83;;;5.20;99.90;;;;;;4993944;28;20438;-81
2021/12/10 09:14:44;;;;;;;8.70;3.40;;;5.20;99.90;;;;;;4994990;28;20461;-82
2021/12/10 09:17:11;;;;;;;7.07;3.97;;;5.20;99.90;;;;;;4993346;28;20034;-80
2021/12/10 09:19:40;;;;;;;6.60;3.08;;;5.20;99.90;;;;;;4994674;28;20018;-80
2021/12/10 09:22:07;;;;;;;7.00;3.40;;;5.30;99.90;;;;;;4993875;28;20390;-82
2021/12/10 09:24:34;;;;;;;5.95;3.00;;;5.30;99.90;;;;;;4992768;28;20019;-82
2021/12/10 09:27:01;;;;;;;6.53;3.42;;;5.40;99.90;;;;;;4993962;28;20030;-81
2021/12/10 09:29:31;;;;;;;6.85;4.13;;;5.40;99.90;;;;;;4992932;28;20015;-82
2021/12/10 09:31:59;;;;;;;9.38;3.70;;;5.40;99.90;;;;;;4992952;28;20030;-80
2021/12/10 09:34:25;;;;;;;6.05;3.63;;;5.40;99.90;;;;;;4993491;28;20015;-79
2021/12/10 09:36:51;;;;;;;6.60;3.10;;;5.50;99.90;;;;;;4992856;28;20029;-80
2021/12/10 09:39:19;;;;;;;5.45;2.88;;;5.50;99.90;;;;;;4993536;28;20106;-82
2021/12/10 09:41:44;;;;;;;8.68;2.95;;;5.50;99.90;;;;;;4977122;28;20042;-82
2021/12/10 09:44:11;;;;;;;5.40;3.28;;;5.60;99.90;;;;;;4993011;28;20437;-82
2021/12/10 09:46:39;;;;;;;7.43;2.90;;;5.60;99.90;;;;;;4992984;28;20073;-82
2021/12/10 09:49:08;;;;;;;7.10;2.92;;;5.60;99.90;;;;;;4977045;28;20482;-82
2021/12/10 09:51:43;;;;;;;8.43;3.65;;;5.60;99.90;;;;;;4992191;28;20038;-80
2021/12/10 09:54:11;;;;;;;7.10;2.97;;;5.70;99.90;;;;;;4977034;28;20121;-83
2021/12/10 09:56:51;;;;;;;4.88;3.03;;;5.70;99.90;;;;;;4992975;28;20022;-81
2021/12/10 09:59:18;;;;;;;8.68;3.30;;;5.70;99.90;;;;;;4992745;28;20494;-82
2021/12/10 10:01:47;;;;;;;6.22;3.20;;;5.70;99.90;;;;;;4993035;28;20026;-83
2021/12/10 10:04:17;;;;;;;5.20;3.20;;;5.70;99.90;;;;;;4992687;28;20513;-80
2021/12/10 10:06:57;;;;;;;6.03;3.20;;;5.80;99.90;;;;;;4993955;28;20030;-83
2021/12/10 10:09:25;;;;;;;7.07;3.38;;;5.80;99.90;;;;;;4995737;28;20015;-83
2021/12/10 10:12:12;;;;;;;5.30;3.03;;;5.80;99.90;;;;;;4996098;28;20117;-80
2021/12/10 10:14:39;;;;;;;4.47;3.00;;;5.80;99.90;;;;;;4978873;28;20498;-83
2021/12/10 10:17:07;;;;;;;5.22;2.75;;;5.90;99.90;;;;;;4963736;28;20045;-83
2021/12/10 10:19:34;;;;;;;7.03;3.47;;;5.90;99.90;;;;;;4978637;28;20065;-83
2021/12/10 10:22:02;;;;;;;8.32;3.05;;;5.90;99.90;;;;;;4979958;28;20124;-83
2021/12/10 10:24:29;;;;;;;9.05;3.08;;;5.90;99.90;;;;;;4995358;28;20028;-83
2021/12/10 10:27:04;;;;;;;5.82;2.90;;;5.90;99.90;;;;;;4994990;28;20445;-82
2021/12/10 10:29:33;;;;;;;5.95;3.22;;;6.00;99.90;;;;;;4995379;28;20022;-83
2021/12/10 10:32:09;;;;;;;4.47;2.72;;;6.00;99.90;;;;;;4979717;28;20052;-83
2021/12/10 10:34:37;;;;;;;4.72;3.08;;;6.10;99.90;;;;;;4996288;28;20030;-83
2021/12/10 10:37:03;;;;;;;4.45;2.78;;;6.10;99.90;;;;;;4963801;28;20490;-82
2021/12/10 10:39:33;;;;;;;9.45;3.30;;;6.10;99.90;;;;;;4995319;28;20743;-83
2021/12/10 10:42:01;;;;;;;4.20;2.50;;;6.20;99.90;;;;;;4995002;28;20040;-80
2021/12/10 10:44:27;;;;;;;6.05;2.60;;;6.20;99.90;;;;;;4994727;28;20069;-82
2021/12/10 10:47:13;;;;;;;4.80;2.55;;;6.30;99.90;;;;;;5013375;28;20084;-82
2021/12/10 10:49:46;;;;;;;5.55;2.65;;;6.30;99.90;;;;;;4994714;28;20529;-82
2021/12/10 10:52:20;;;;;;;6.72;2.80;;;6.30;99.90;;;;;;4996544;28;20030;-80
2021/12/10 10:54:50;;;;;;;6.07;2.63;;;6.40;99.90;;;;;;4995248;28;20022;-82
2021/12/10 10:57:26;;;;;;;7.05;2.85;;;6.40;99.90;;;;;;4979383;28;20088;-81
2021/12/10 10:59:57;;;;;;;6.13;2.60;;;6.50;99.90;;;;;;4995792;28;20018;-82
2021/12/10 11:02:36;;;;;;;6.75;2.53;;;6.50;99.90;;;;;;4994834;28;20029;-83
2021/12/10 11:05:11;;;;;;;6.55;2.58;;;6.50;99.90;;;;;;5012837;28;20022;-83
2021/12/10 11:07:45;;;;;;;5.80;2.85;;;6.50;99.90;;;;;;4994785;28;20021;-82
2021/12/10 11:10:12;;;;;;;6.20;2.70;;;6.60;99.90;;;;;;5012169;28;20052;-82
2021/12/10 11:12:42;;;;;;;4.70;2.88;;;6.60;99.90;;;;;;4994534;28;20076;-82
2021/12/10 11:15:18;;;;;;;7.38;3.55;;;6.60;99.90;;;;;;4995246;28;20022;-84
2021/12/10 11:17:53;;;;;;;6.10;2.92;;;6.70;99.90;;;;;;4994465;28;20445;-83
2021/12/10 11:20:27;;;;;;;9.57;2.63;;;6.70;99.90;;;;;;4994515;28;20116;-83
2021/12/10 11:22:59;;;;;;;4.22;2.53;;;6.70;99.90;;;;;;4994552;28;20030;-80
2021/12/10 11:25:36;;;;;;;9.15;2.50;;;6.80;99.90;;;;;;4994566;28;20022;-82
2021/12/10 11:28:06;;;;;;;9.05;3.08;;;6.80;99.90;;;;;;5012042;28;20038;-83
2021/12/10 11:30:33;;;;;;;8.13;3.10;;;6.80;99.90;;;;;;4993825;28;20083;-83
2021/12/10 11:33:08;;;;;;;6.53;2.55;;;6.80;99.90;;;;;;4994561;28;20037;-83
2021/12/10 11:35:39;;;;;;;7.75;2.70;;;6.80;99.90;;;;;;5011909;28;20053;-80
2021/12/10 11:38:13;;;;;;;6.15;2.72;;;6.80;99.90;;;;;;4994180;28;20087;-82
2021/12/10 11:40:40;;;;;;;6.72;3.10;;;6.80;99.90;;;;;;4994062;28;20026;-83
2021/12/10 11:47:02;;;;;;;6.78;2.80;;;6.80;99.90;;;;;;5012288;28;20107;-81
2021/12/10 11:49:33;;;;;;;4.95;2.28;;;6.80;99.90;;;;;;4993902;28;20089;-82
2021/12/10 11:52:04;;;;;;;4.88;2.50;;;6.90;99.90;;;;;;4993787;28;20410;-82
2021/12/10 11:54:38;;;;;;;5.10;2.33;;;6.90;99.90;;;;;;4993982;28;20122;-83
2021/12/10 11:57:29;;;;;;;7.38;2.90;;;6.90;99.90;;;;;;5011818;28;20105;-83
2021/12/10 12:00:08;;;;;;;4.85;2.47;;;6.90;99.90;;;;;;4994006;28;20462;-82
2021/12/10 12:02:44;;;;;;;5.10;2.58;;;6.90;99.90;;;;;;4993769;28;20040;-80
2021/12/10 12:05:15;;;;;;;5.00;2.65;;;6.90;99.90;;;;;;4993306;28;20026;-82
2021/12/10 12:07:46;;;;;;;7.63;2.95;;;6.90;99.90;;;;;;4977674;28;20033;-83
2021/12/10 12:10:24;;;;;;;4.90;2.70;;;6.90;99.90;;;;;;4977496;28;20054;-81
2021/12/10 12:12:59;;;;;;;4.13;2.58;;;6.90;99.90;;;;;;5011266;28;20477;-81
2021/12/10 12:15:33;;;;;;;3.90;2.42;;;7.00;99.90;;;;;;5011033;28;20109;-80
2021/12/10 12:18:05;;;;;;;4.97;2.60;;;7.00;99.90;;;;;;4994145;28;20471;-82
2021/12/10 12:20:36;;;;;;;6.85;3.15;;;7.00;99.90;;;;;;4992588;28;20022;-82
2021/12/10 12:26:16;;;;;;;5.07;2.78;;;6.90;99.90;;;;;;5010750;28;20040;-80
2021/12/10 12:28:49;;;;;;;5.22;2.95;;;6.90;99.90;;;;;;4993547;28;20018;-82
2021/12/10 12:31:28;;;;;;;5.53;3.13;;;7.00;99.90;;;;;;4977943;28;20056;-83
2021/12/10 12:34:10;;;;;;;5.72;2.50;;;7.00;99.90;;;;;;4992879;28;20064;-81
2021/12/10 12:36:35;;;;;;;;;;;7.00;99.90;;;;;;4993847;28;20045;-82
2021/12/10 12:39:04;;;;;;;6.00;2.95;;;7.00;99.90;;;;;;5011407;28;19960;-78
2021/12/10 12:41:55;;;;;;;4.72;2.45;;;7.00;99.90;;;;;;5011024;28;20033;-80
2021/12/10 12:44:25;;;;;;;6.18;2.90;;;6.90;99.90;;;;;;5010200;28;20036;-76
2021/12/10 12:46:58;;;;;;;3.80;2.50;;;6.90;99.90;;;;;;5010254;28;20022;-81
2021/12/10 12:49:25;;;;;;;7.30;2.92;;;6.90;99.90;;;;;;5003103;28;20025;-81
2021/12/10 12:52:06;;;;;;;4.97;2.75;;;6.90;99.90;;;;;;4995866;28;20493;-83
2021/12/10 12:54:33;;;;;;;5.93;2.50;;;6.90;99.90;;;;;;5016474;28;20029;-83
2021/12/10 12:57:00;;;;;;;6.82;2.60;;;6.90;99.90;;;;;;5024487;28;20028;-76
2021/12/10 12:59:26;;;;;;;6.15;3.17;;;6.90;99.90;;;;;;5006954;28;20405;-78
2021/12/10 13:01:57;;;;;;;6.65;2.95;;;6.90;99.90;;;;;;5015300;28;20378;-78
2021/12/10 13:04:33;;;;;;;6.05;2.85;;;6.90;99.90;;;;;;5011849;28;20037;-83
2021/12/10 13:07:19;;;;;;;7.20;3.20;;;6.90;99.90;;;;;;4996687;28;20044;-79
2021/12/10 13:09:55;;;;;;;8.35;2.60;;;7.00;99.90;;;;;;5012297;28;20045;-77
2021/12/10 13:15:23;;;;;;;11.95;3.88;;;7.00;99.90;;;;;;5020118;28;20168;-78
2021/12/10 13:17:59;;;;;;;6.45;3.28;;;7.00;99.90;;;;;;5012946;28;20029;-80
2021/12/10 13:20:48;;;;;;;4.18;2.60;;;7.00;99.90;;;;;;5012554;28;20028;-78
2021/12/10 13:23:18;;;;;;;6.45;2.65;;;7.10;99.90;;;;;;5012142;28;20025;-78